Weather at Sugar Springs Airpark

Public forecast

Using degrees Fahrenheit for public forecast. Weather courtesy of forecast.io.

Closest aviation weather report (METAR) to Sugar Springs Airpark

Closest report is Roscommon County - Blodgett Memorial Airport, 16.6 nm (30.7 km) NW. Retrieved 2020/09/20 22:53 UTC (23 minutes ago):

KHTL 202253Z AUTO 16006KT 10SM CLR 17/04 A3045 RMK AO2 SLP318 T01670044

Closest aviation forecast (TAF) to Sugar Springs Airpark

Closest forecast is MBS International Airport, 39.6 nm (73.4 km) SSE. Retrieved 2020/09/20 18:40 UTC (5 hours ago):

TAF KMBS 201737Z 2018/2118 15009KT P6SM SKC FM210600 15003KT P6SM BKN250 FM211400 19007KT P6SM SKC